Time;durP1;ratioP1;P1;durP2;ratioP2;P2;SDS_P1;SDS_P2;PMS_P1;PMS_P2;Temp;Humidity;BMP_temperature;BMP_pressure;BME280_temperature;BME280_humidity;BME280_pressure;Samples;Min_cycle;Max_cycle;Signal;HPM_P1;HPM_P2
2022/05/25 00:01:04;;;;;;;8.55;4.50;;;;;;;14.30;89.57;95895.22;5090489;28;20051;-79
2022/05/25 00:03:32;;;;;;;9.20;4.68;;;;;;;14.30;89.53;95903.44;5090178;28;20101;-78
2022/05/25 00:05:58;;;;;;;7.60;4.50;;;;;;;14.27;89.15;95906.88;5090420;28;20494;-79
2022/05/25 00:08:25;;;;;;;6.70;4.68;;;;;;;14.19;88.68;95907.81;5089945;28;20051;-79
2022/05/25 00:10:52;;;;;;;6.03;4.30;;;;;;;14.19;88.65;95905.09;5090454;28;20052;-79
2022/05/25 00:13:20;;;;;;;7.32;4.95;;;;;;;14.17;88.67;95915.59;5089410;28;20040;-78
2022/05/25 00:15:46;;;;;;;8.30;5.55;;;;;;;14.18;88.48;95908.97;5090525;28;20054;-79
2022/05/25 00:18:13;;;;;;;8.60;4.82;;;;;;;14.20;88.87;95906.69;5089652;28;20461;-79
2022/05/25 00:20:38;;;;;;;7.57;4.97;;;;;;;14.23;88.64;95911.44;5090383;28;20044;-79
2022/05/25 00:23:05;;;;;;;8.50;5.90;;;;;;;14.25;88.74;95909.19;5089970;28;20516;-79
2022/05/25 00:25:35;;;;;;;9.45;5.45;;;;;;;14.23;88.82;95911.44;5090348;28;20044;-79
2022/05/25 00:28:03;;;;;;;8.35;4.80;;;;;;;14.26;89.03;95918.97;5089496;28;20048;-78
2022/05/25 00:30:32;;;;;;;11.15;5.65;;;;;;;14.28;88.94;95913.94;5089988;28;20047;-79
2022/05/25 00:33:00;;;;;;;6.13;4.47;;;;;;;14.31;89.13;95917.94;5090152;28;20127;-77
2022/05/25 00:35:30;;;;;;;8.48;4.97;;;;;;;14.32;88.76;95912.09;5090002;28;20040;-79
2022/05/25 00:37:57;;;;;;;7.60;4.80;;;;;;;14.31;88.27;95894.06;5090252;28;20048;-79
2022/05/25 00:40:26;;;;;;;7.88;5.20;;;;;;;14.26;88.16;95891.59;5089659;28;20043;-80
2022/05/25 00:42:53;;;;;;;7.07;4.65;;;;;;;14.24;88.25;95885.66;5089715;28;20040;-79
2022/05/25 00:45:19;;;;;;;8.75;5.50;;;;;;;14.24;88.20;95896.59;5089697;28;20051;-79
2022/05/25 00:47:50;;;;;;;7.93;4.93;;;;;;;14.26;88.45;95894.34;5090127;28;20039;-80
2022/05/25 00:50:21;;;;;;;8.93;4.18;;;;;;;14.28;88.44;95894.75;5089597;28;20055;-78
2022/05/25 00:52:50;;;;;;;6.93;4.10;;;;;;;14.26;88.07;95894.34;5090098;28;20051;-79
2022/05/25 00:55:26;;;;;;;7.28;4.63;;;;;;;14.23;88.11;95897.75;5089554;28;20072;-79
2022/05/25 00:57:56;;;;;;;5.53;4.03;;;;;;;14.24;88.41;95893.06;5089801;28;20052;-79
2022/05/25 01:00:25;;;;;;;6.80;4.95;;;;;;;14.25;88.44;95881.78;5089212;28;20059;-78
2022/05/25 01:02:59;;;;;;;6.35;4.25;;;;;;;14.26;88.14;95888.84;5089777;28;20049;-79
2022/05/25 01:05:30;;;;;;;9.18;4.70;;;;;;;14.25;88.35;95887.28;5089280;28;20048;-78
2022/05/25 01:08:08;;;;;;;9.55;4.05;;;;;;;14.24;88.53;95885.66;5089866;28;20388;-78
2022/05/25 01:10:45;;;;;;;5.43;3.90;;;;;;;14.22;88.77;95879.75;5089701;28;20040;-79
2022/05/25 01:13:22;;;;;;;11.93;4.55;;;;;;;14.22;88.71;95882.50;5088836;28;20044;-79
2022/05/25 01:16:01;;;;;;;5.10;3.42;;;;;;;14.23;88.79;95886.03;5089793;28;20055;-78
2022/05/25 01:18:35;;;;;;;5.28;3.65;;;;;;;14.22;88.09;95887.97;5089435;28;20453;-79
2022/05/25 01:21:06;;;;;;;6.85;4.00;;;;;;;14.21;87.72;95891.06;5089097;28;20453;-78
2022/05/25 01:24:08;;;;;;;6.03;4.10;;;;;;;14.18;87.41;95898.03;5089707;28;20043;-81
2022/05/25 01:27:08;;;;;;;6.97;4.03;;;;;;;14.19;87.56;95901.56;5089391;28;20032;-79
2022/05/25 01:30:09;;;;;;;8.45;4.60;;;;;;;14.19;87.19;95910.56;5089490;28;20526;-78
2022/05/25 01:32:47;;;;;;;7.15;4.03;;;;;;;14.17;87.03;95912.88;5075628;28;20036;-79
2022/05/25 01:35:22;;;;;;;8.75;4.18;;;;;;;14.15;86.95;95920.66;5089138;28;20547;-79
2022/05/25 01:37:54;;;;;;;6.60;3.92;;;;;;;14.15;87.34;95920.66;5089663;28;20044;-78
2022/05/25 01:40:29;;;;;;;9.75;3.78;;;;;;;14.11;87.29;95922.50;5090229;28;20071;-78
2022/05/25 01:43:01;;;;;;;7.30;4.22;;;;;;;14.09;87.11;95917.38;5092845;28;20044;-79
2022/05/25 01:45:31;;;;;;;5.38;3.47;;;;;;;14.11;87.07;95927.97;5092900;28;20044;-79
2022/05/25 01:48:03;;;;;;;5.97;3.97;;;;;;;14.10;86.84;95934.59;5093112;28;20062;-79
2022/05/25 01:50:33;;;;;;;5.57;3.45;;;;;;;14.09;86.95;95927.50;5093011;28;20403;-78
2022/05/25 01:53:03;;;;;;;5.30;4.13;;;;;;;14.10;87.09;95923.66;5092966;28;20051;-79
2022/05/25 01:55:34;;;;;;;5.90;4.00;;;;;;;14.11;87.11;95922.50;5092892;28;20491;-78
2022/05/25 01:58:03;;;;;;;5.40;4.13;;;;;;;14.11;87.32;95930.72;5092931;28;20044;-79
2022/05/25 02:00:33;;;;;;;7.22;4.15;;;;;;;14.12;87.09;95937.78;5092346;28;20518;-78
2022/05/25 02:05:57;;;;;;;6.18;4.30;;;;;;;14.12;87.06;95929.56;5092874;28;20648;-78
2022/05/25 02:08:36;;;;;;;4.90;4.13;;;;;;;14.12;87.30;95926.81;5092266;28;20047;-78
2022/05/25 02:11:14;;;;;;;8.88;4.68;;;;;;;14.10;87.43;95923.66;5089775;28;20076;-79
2022/05/25 02:13:56;;;;;;;8.77;4.57;;;;;;;14.08;87.70;95921.22;5092719;28;20047;-78
2022/05/25 02:16:35;;;;;;;8.38;4.85;;;;;;;14.10;87.98;95929.13;5092229;28;20524;-78
2022/05/25 02:19:11;;;;;;;8.52;5.10;;;;;;;14.14;88.20;95940.16;5091985;28;20055;-75
2022/05/25 02:21:45;;;;;;;9.48;5.63;;;;;;;14.16;88.26;95944.13;5092666;28;20075;-78
2022/05/25 02:24:18;;;;;;;6.45;5.00;;;;;;;14.19;88.59;95943.41;5092110;28;20052;-78
2022/05/25 02:26:49;;;;;;;6.97;4.60;;;;;;;14.21;88.62;95940.34;5092572;28;20040;-79
2022/05/25 02:29:20;;;;;;;8.25;5.78;;;;;;;14.22;88.64;95937.25;5091999;28;20131;-78
2022/05/25 02:31:51;;;;;;;8.77;4.97;;;;;;;14.25;88.91;95941.22;5092373;28;20040;-80
2022/05/25 02:34:21;;;;;;;5.35;4.47;;;;;;;14.23;88.38;95944.31;5091812;28;20068;-78
2022/05/25 02:36:50;;;;;;;8.57;5.68;;;;;;;14.24;88.36;95940.44;5092347;28;20113;-78
2022/05/25 02:39:17;;;;;;;11.15;6.15;;;;;;;14.24;88.02;95934.16;5091736;28;20044;-78
2022/05/25 02:41:48;;;;;;;10.18;5.97;;;;;;;14.26;88.37;95932.66;5091076;28;20094;-78
2022/05/25 02:44:14;;;;;;;11.48;6.20;;;;;;;14.28;88.56;95933.09;5090818;28;20047;-78
2022/05/25 02:46:41;;;;;;;13.35;5.60;;;;;;;14.26;88.34;95938.16;5092078;28;20047;-78
2022/05/25 02:49:08;;;;;;;7.38;5.20;;;;;;;14.22;88.45;95944.69;5091241;28;20048;-79
2022/05/25 02:51:36;;;;;;;5.90;5.28;;;;;;;14.20;88.38;95956.00;5091244;28;20499;-78
2022/05/25 02:54:03;;;;;;;6.53;5.35;;;;;;;14.20;88.50;95957.91;5091371;28;20050;-78
2022/05/25 02:56:30;;;;;;;7.85;6.10;;;;;;;14.18;88.47;95952.78;5091977;28;20044;-79
2022/05/25 02:58:56;;;;;;;10.13;5.47;;;;;;;14.02;88.52;95960.19;5091631;28;20807;-79
2022/05/25 03:01:23;;;;;;;6.88;6.00;;;;;;;13.94;88.89;95966.59;5091167;28;20040;-78
2022/05/25 03:03:49;;;;;;;10.10;5.80;;;;;;;13.95;89.05;95962.72;5091752;28;20044;-79
2022/05/25 03:06:16;;;;;;;7.70;5.93;;;;;;;13.96;89.23;95970.59;5090989;28;20055;-78
2022/05/25 03:08:44;;;;;;;10.25;6.90;;;;;;;13.95;89.81;95965.47;5091628;28;20048;-79
2022/05/25 03:11:10;;;;;;;8.63;5.97;;;;;;;13.98;90.16;95970.22;5089937;28;20051;-78
2022/05/25 03:13:37;;;;;;;12.30;7.38;;;;;;;14.00;90.32;95978.91;5091454;28;20047;-77
2022/05/25 03:16:07;;;;;;;11.10;6.68;;;;;;;14.01;90.61;95980.50;5090914;28;20082;-77
2022/05/25 03:18:34;;;;;;;9.20;6.35;;;;;;;14.00;90.88;95978.91;5091474;28;20044;-78
2022/05/25 03:21:00;;;;;;;7.75;6.05;;;;;;;13.92;90.87;95982.56;5091131;28;20051;-78
2022/05/25 03:23:27;;;;;;;11.48;6.75;;;;;;;13.82;91.04;95984.66;5090856;28;20620;-77
2022/05/25 03:25:54;;;;;;;9.88;6.43;;;;;;;13.70;91.03;95992.91;5091165;28;20071;-78
2022/05/25 03:28:21;;;;;;;9.02;6.90;;;;;;;13.68;91.47;95987.00;5090687;28;20058;-79
2022/05/25 03:30:48;;;;;;;8.27;6.32;;;;;;;13.67;91.86;95993.59;5091236;28;20044;-78
2022/05/25 03:33:15;;;;;;;9.98;6.90;;;;;;;13.75;91.63;95995.41;5090577;28;20112;-80
2022/05/25 03:35:43;;;;;;;8.65;7.30;;;;;;;13.76;91.38;95994.25;5091212;28;20044;-78
2022/05/25 03:38:09;;;;;;;11.68;8.02;;;;;;;13.76;91.53;95988.78;5090503;28;20058;-77
2022/05/25 03:40:37;;;;;;;9.07;7.82;;;;;;;13.78;91.55;95999.38;5090761;28;20036;-79
2022/05/25 03:43:05;;;;;;;11.30;7.25;;;;;;;13.67;91.70;95999.06;5089270;28;20052;-78
2022/05/25 03:45:32;;;;;;;10.00;7.57;;;;;;;13.69;92.04;95988.59;5091082;28;20040;-77
2022/05/25 03:47:58;;;;;;;18.20;10.38;;;;;;;13.70;91.78;95992.91;5090977;28;20044;-77
2022/05/25 03:50:25;;;;;;;14.82;9.70;;;;;;;13.73;92.34;96003.19;5090589;28;20043;-77
2022/05/25 03:52:51;;;;;;;13.82;9.13;;;;;;;13.76;92.63;96002.47;5090696;28;20048;-78
2022/05/25 03:55:18;;;;;;;13.57;9.77;;;;;;;13.75;92.94;96003.63;5090262;28;20075;-80
2022/05/25 03:57:44;;;;;;;15.68;9.65;;;;;;;13.77;93.18;95998.59;5090739;28;20048;-77
2022/05/25 04:00:13;;;;;;;18.55;9.50;;;;;;;13.79;93.03;96007.25;5090253;28;20047;-79
2022/05/25 04:02:39;;;;;;;15.15;10.25;;;;;;;13.77;92.41;96020.47;5090644;28;20079;-78
2022/05/25 04:05:10;;;;;;;17.60;10.25;;;;;;;13.69;92.46;96023.38;5090076;28;20055;-78
2022/05/25 04:07:38;;;;;;;16.08;10.98;;;;;;;13.66;92.54;96030.31;5090376;28;20068;-78
2022/05/25 04:10:06;;;;;;;21.55;12.52;;;;;;;13.68;92.84;96022.56;5089967;28;20044;-78
2022/05/25 04:12:34;;;;;;;23.20;13.85;;;;;;;13.65;93.21;96020.50;5089359;28;20047;-78
2022/05/25 04:15:00;;;;;;;27.98;15.68;;;;;;;13.66;93.77;96030.31;5090446;28;20490;-78
2022/05/25 04:17:28;;;;;;;23.83;15.15;;;;;;;13.65;94.16;96027.94;5090095;28;20040;-79
2022/05/25 04:19:56;;;;;;;24.10;14.90;;;;;;;13.53;95.52;96034.22;5090168;28;20043;-78
2022/05/25 04:22:22;;;;;;;28.65;14.45;;;;;;;13.55;95.79;96034.66;5090145;28;20044;-79
2022/05/25 04:24:48;;;;;;;19.77;14.05;;;;;;;13.53;96.17;96036.97;5090433;28;20047;-78
2022/05/25 04:27:15;;;;;;;22.52;14.65;;;;;;;13.47;96.57;96050.09;5089630;28;20055;-78
2022/05/25 04:29:41;;;;;;;20.60;14.05;;;;;;;13.40;97.28;96049.03;5090195;28;20371;-79
2022/05/25 04:32:08;;;;;;;23.15;14.57;;;;;;;13.35;97.63;96046.53;5089948;28;20415;-78
2022/05/25 04:34:37;;;;;;;23.02;15.10;;;;;;;13.26;97.82;96050.22;5090395;28;20403;-78
2022/05/25 04:39:44;;;;;;;20.67;13.23;;;;;;;13.21;98.52;96061.38;5089039;28;20036;-79
2022/05/25 04:42:11;;;;;;;16.75;13.05;;;;;;;13.11;98.56;96056.31;5088276;28;20051;-79
2022/05/25 04:44:38;;;;;;;21.58;13.23;;;;;;;13.04;99.05;96064.28;5090217;28;20044;-78
2022/05/25 04:47:08;;;;;;;21.27;13.38;;;;;;;13.00;99.34;96063.38;5089852;28;20542;-78
2022/05/25 04:49:36;;;;;;;22.70;13.50;;;;;;;13.04;99.56;96065.06;5090121;28;20455;-79
2022/05/25 04:52:03;;;;;;;19.58;13.10;;;;;;;13.10;99.51;96065.66;5089672;28;20040;-78
2022/05/25 04:54:29;;;;;;;23.60;14.07;;;;;;;13.18;99.52;96067.47;5090156;28;20446;-79
2022/05/25 04:59:40;;;;;;;29.98;13.82;;;;;;;13.22;99.25;96065.69;5089765;28;20144;-79
2022/05/25 05:02:06;;;;;;;24.23;13.85;;;;;;;13.19;99.24;96068.28;5089451;28;20121;-78
2022/05/25 05:04:33;;;;;;;22.63;15.05;;;;;;;13.18;99.17;96075.69;5090175;28;20078;-78
2022/05/25 05:07:00;;;;;;;23.17;14.95;;;;;;;13.23;99.35;96082.91;5090080;28;20051;-79
2022/05/25 05:09:33;;;;;;;23.25;14.45;;;;;;;13.27;99.30;96090.09;5089313;28;20047;-79
2022/05/25 05:11:59;;;;;;;24.90;15.63;;;;;;;13.32;99.21;96087.13;5088666;28;20051;-78
2022/05/25 05:14:26;;;;;;;24.02;15.55;;;;;;;13.33;99.18;96087.91;5089377;28;20040;-78
2022/05/25 05:16:55;;;;;;;22.55;13.02;;;;;;;13.38;99.37;96084.16;5093757;28;20429;-79
2022/05/25 05:19:22;;;;;;;24.02;14.07;;;;;;;13.39;99.23;96088.47;5093347;28;20469;-79
2022/05/25 05:21:48;;;;;;;24.13;13.93;;;;;;;13.35;98.98;96085.63;5093855;28;20048;-78
2022/05/25 05:24:16;;;;;;;23.70;14.88;;;;;;;13.31;99.07;96091.00;5093253;28;20051;-77
2022/05/25 05:26:42;;;;;;;21.13;13.68;;;;;;;13.16;98.94;96099.84;5093470;28;20044;-79
2022/05/25 05:29:09;;;;;;;25.52;15.45;;;;;;;13.07;100.00;96107.34;5093081;28;20419;-79
2022/05/25 05:31:35;;;;;;;26.33;15.95;;;;;;;13.07;100.00;96112.81;5093959;28;20040;-79
2022/05/25 05:34:02;;;;;;;28.35;17.55;;;;;;;13.18;100.00;96113.97;5093350;28;20047;-79
2022/05/25 05:36:32;;;;;;;22.27;15.07;;;;;;;13.13;100.00;96116.91;5093399;28;20044;-80
2022/05/25 05:39:01;;;;;;;27.48;16.45;;;;;;;13.13;100.00;96116.91;5093507;28;20050;-79
2022/05/25 05:41:33;;;;;;;26.42;16.10;;;;;;;13.19;100.00;96121.03;5091909;28;20044;-79
2022/05/25 05:44:00;;;;;;;25.35;15.25;;;;;;;13.16;100.00;96137.31;5093373;28;20066;-79
2022/05/25 05:46:28;;;;;;;30.27;16.15;;;;;;;13.23;100.00;96145.78;5092884;28;20048;-79
2022/05/25 05:48:55;;;;;;;26.55;14.85;;;;;;;13.29;100.00;96161.63;5093433;28;20062;-79
2022/05/25 05:51:22;;;;;;;25.17;14.50;;;;;;;13.23;100.00;96160.25;5092910;28;20047;-78
2022/05/25 05:53:50;;;;;;;26.45;15.38;;;;;;;13.27;100.00;96165.84;5093241;28;20040;-79
2022/05/25 05:56:19;;;;;;;25.58;14.90;;;;;;;13.28;100.00;96168.25;5093002;28;20055;-80
2022/05/25 05:58:47;;;;;;;18.67;13.00;;;;;;;13.30;100.00;96176.88;5093137;28;20666;-79
2022/05/25 06:01:13;;;;;;;23.02;14.73;;;;;;;13.35;100.00;96178.59;5092775;28;20044;-78
2022/05/25 06:03:40;;;;;;;24.00;13.13;;;;;;;13.45;100.00;96188.31;5093262;28;20047;-79
2022/05/25 06:06:06;;;;;;;22.90;13.82;;;;;;;13.49;100.00;96195.50;5092630;28;20049;-78
2022/05/25 06:08:33;;;;;;;20.55;13.43;;;;;;;13.48;99.57;96198.59;5092969;28;20052;-78
2022/05/25 06:10:59;;;;;;;21.33;13.70;;;;;;;13.48;99.25;96204.06;5091514;28;20048;-79
2022/05/25 06:13:26;;;;;;;18.55;12.57;;;;;;;13.51;99.25;96209.63;5092216;28;20063;-78
2022/05/25 06:21:23;;;;;;;16.98;12.38;;;;;;;13.50;98.93;96224.44;5092260;28;20047;-81
2022/05/25 06:23:50;;;;;;;16.23;11.63;;;;;;;13.37;98.49;96225.56;5092690;28;20051;-78
2022/05/25 06:26:18;;;;;;;20.25;12.52;;;;;;;13.30;98.92;96230.78;5091228;28;20059;-78
2022/05/25 06:28:45;;;;;;;17.83;11.60;;;;;;;13.22;99.21;96224.28;5092521;28;20040;-79
2022/05/25 06:31:13;;;;;;;16.80;10.40;;;;;;;13.25;99.38;96233.72;5092156;28;20507;-78
2022/05/25 06:33:41;;;;;;;14.23;10.43;;;;;;;13.34;99.49;96233.66;5092772;28;20064;-79
2022/05/25 06:36:15;;;;;;;15.23;10.90;;;;;;;13.37;99.34;96243.94;5091983;28;20048;-79
2022/05/25 06:38:42;;;;;;;13.23;10.20;;;;;;;13.35;98.85;96254.38;5092434;28;20040;-79
2022/05/25 06:41:09;;;;;;;14.63;8.80;;;;;;;13.39;98.63;96255.31;5090591;28;20047;-79
2022/05/25 06:43:36;;;;;;;13.88;8.63;;;;;;;13.35;98.09;96254.38;5092439;28;20036;-78
2022/05/25 06:46:02;;;;;;;10.98;7.57;;;;;;;13.36;98.12;96250.50;5091803;28;20059;-79
2022/05/25 06:48:30;;;;;;;15.93;9.40;;;;;;;13.42;98.14;96249.19;5092308;28;20036;-78
2022/05/25 06:50:57;;;;;;;12.90;8.13;;;;;;;13.53;97.99;96255.81;5092054;28;20044;-78
2022/05/25 06:53:23;;;;;;;9.85;7.10;;;;;;;13.51;97.43;96269.00;5091394;28;20044;-79
2022/05/25 06:55:50;;;;;;;11.70;8.02;;;;;;;13.59;97.57;96265.38;5092195;28;20047;-79
2022/05/25 06:58:16;;;;;;;8.23;6.07;;;;;;;13.59;96.94;96279.06;5091421;28;20047;-79
2022/05/25 07:00:43;;;;;;;7.43;5.53;;;;;;;13.62;96.81;96274.84;5091878;28;20051;-80
2022/05/25 07:03:09;;;;;;;8.30;6.00;;;;;;;13.65;96.42;96282.38;5091171;28;20051;-79
2022/05/25 07:05:37;;;;;;;11.52;6.63;;;;;;;13.68;95.88;96285.25;5091908;28;20052;-78
2022/05/25 07:08:04;;;;;;;12.55;7.00;;;;;;;13.72;95.54;96288.88;5091127;28;20126;-79
2022/05/25 07:10:31;;;;;;;11.05;6.40;;;;;;;13.77;95.46;96294.13;5091614;28;20050;-79
2022/05/25 07:12:58;;;;;;;7.15;5.43;;;;;;;13.76;95.06;96298.03;5090498;28;20159;-79
2022/05/25 07:15:24;;;;;;;7.35;4.53;;;;;;;13.74;94.80;96294.84;5091385;28;20495;-78
2022/05/25 07:17:51;;;;;;;7.88;4.93;;;;;;;13.62;94.42;96292.06;5091458;28;20498;-79
2022/05/25 07:20:17;;;;;;;6.15;5.10;;;;;;;13.62;94.90;96296.72;5091174;28;20040;-79
2022/05/25 07:22:45;;;;;;;6.43;5.30;;;;;;;13.62;94.58;96304.94;5091327;28;20044;-79
2022/05/25 07:25:12;;;;;;;9.63;5.63;;;;;;;13.63;94.41;96299.16;5090802;28;20051;-78
2022/05/25 07:27:39;;;;;;;6.97;5.40;;;;;;;13.49;92.96;96302.19;5091272;28;20052;-81
2022/05/25 07:30:07;;;;;;;7.25;5.30;;;;;;;13.41;93.38;96303.06;5090845;28;20054;-78
2022/05/25 07:32:34;;;;;;;8.55;5.53;;;;;;;13.37;93.99;96301.38;5091539;28;20048;-79
2022/05/25 07:35:04;;;;;;;6.90;5.43;;;;;;;13.42;94.71;96306.63;5091426;28;20040;-80
2022/05/25 07:37:37;;;;;;;6.45;5.53;;;;;;;13.36;93.52;96313.41;5090803;28;20081;-77
2022/05/25 07:40:07;;;;;;;;;;;;;;;13.31;93.77;96315.25;5091395;28;20050;-78
2022/05/25 07:42:34;;;;;;;9.23;6.68;;;;;;;13.22;93.54;96317.25;5089764;28;20286;-78
2022/05/25 07:45:04;;;;;;;8.05;5.97;;;;;;;13.22;93.88;96322.72;5091265;28;20048;-79
2022/05/25 07:47:33;;;;;;;6.95;5.47;;;;;;;13.30;93.75;96307.34;5090457;28;20044;-79
2022/05/25 07:50:00;;;;;;;7.85;5.72;;;;;;;13.30;94.07;96313.63;5091000;28;20044;-79
2022/05/25 07:52:29;;;;;;;5.63;4.25;;;;;;;13.35;94.31;96311.81;5090666;28;20040;-78
2022/05/25 07:54:57;;;;;;;6.50;4.80;;;;;;;13.37;94.27;96321.31;5090941;28;20072;-79
2022/05/25 07:57:25;;;;;;;6.68;4.38;;;;;;;13.46;94.21;96315.72;5090606;28;20070;-78
2022/05/25 07:59:52;;;;;;;7.10;4.90;;;;;;;13.47;94.04;96317.34;5090624;28;20384;-79
2022/05/25 08:07:55;;;;;;;8.30;5.68;;;;;;;13.44;93.60;96323.47;5090944;28;20529;-81
2022/05/25 08:10:25;;;;;;;7.68;5.63;;;;;;;13.28;93.69;96326.84;5090108;28;20052;-79
2022/05/25 08:12:55;;;;;;;8.05;6.53;;;;;;;13.25;94.99;96324.75;5089079;28;20044;-79
2022/05/25 08:15:23;;;;;;;12.48;7.30;;;;;;;13.09;95.94;96329.22;5089987;28;20094;-79
2022/05/25 08:17:50;;;;;;;8.27;5.88;;;;;;;13.02;96.71;96334.44;5090526;28;20040;-79
2022/05/25 08:20:19;;;;;;;10.18;6.38;;;;;;;13.11;97.09;96329.72;5090105;28;20044;-79
2022/05/25 08:22:45;;;;;;;10.05;7.22;;;;;;;13.22;97.14;96316.47;5090529;28;20044;-79
2022/05/25 08:25:14;;;;;;;10.40;6.45;;;;;;;13.34;97.27;96323.91;5089991;28;20216;-79
2022/05/25 08:27:41;;;;;;;8.77;5.80;;;;;;;13.47;97.17;96333.75;5090355;28;20040;-79
2022/05/25 08:30:11;;;;;;;4.43;3.58;;;;;;;13.53;95.52;96332.41;5089765;28;20052;-79
2022/05/25 08:32:38;;;;;;;4.80;3.47;;;;;;;13.46;94.42;96337.59;5090425;28;20035;-79
2022/05/25 08:35:05;;;;;;;5.75;3.65;;;;;;;13.36;94.20;96338.03;5089905;28;20047;-79
2022/05/25 08:37:32;;;;;;;8.18;4.55;;;;;;;13.41;94.57;96341.34;5090352;28;20040;-80
2022/05/25 08:39:58;;;;;;;8.45;5.43;;;;;;;13.50;95.55;96346.75;5090184;28;20048;-80
2022/05/25 08:42:29;;;;;;;8.68;5.32;;;;;;;13.66;96.35;96342.25;5088095;28;20044;-81
2022/05/25 08:44:57;;;;;;;7.07;4.43;;;;;;;13.61;93.05;96339.72;5090200;28;20402;-80
2022/05/25 08:47:25;;;;;;;7.95;5.43;;;;;;;13.77;92.05;96340.66;5089610;28;20399;-80
2022/05/25 08:49:52;;;;;;;7.30;4.15;;;;;;;13.87;91.07;96346.84;5089360;28;20052;-80
2022/05/25 08:52:25;;;;;;;8.23;6.43;;;;;;;13.97;92.87;96347.22;5089680;28;20560;-81
2022/05/25 08:54:52;;;;;;;7.07;4.60;;;;;;;14.15;93.56;96347.81;5090131;28;20052;-80
2022/05/25 08:57:24;;;;;;;5.18;4.07;;;;;;;14.16;91.97;96352.16;5089445;28;20047;-81
2022/05/25 08:59:55;;;;;;;7.15;4.90;;;;;;;14.26;92.15;96362.66;5090046;28;20485;-80
2022/05/25 09:02:28;;;;;;;5.15;3.58;;;;;;;14.25;89.75;96358.31;5089394;28;20059;-80
2022/05/25 09:05:02;;;;;;;6.35;3.53;;;;;;;14.35;89.27;96357.06;5090114;28;20135;-80
2022/05/25 09:07:36;;;;;;;6.28;4.00;;;;;;;14.47;88.25;96353.53;5089472;28;20047;-80
2022/05/25 09:10:03;;;;;;;7.85;3.60;;;;;;;14.53;88.17;96357.66;5089314;28;20056;-80
2022/05/25 09:12:35;;;;;;;6.38;4.07;;;;;;;14.78;90.15;96353.78;5088308;28;20403;-81
2022/05/25 09:15:06;;;;;;;5.00;3.10;;;;;;;14.90;87.27;96361.16;5089439;28;20055;-80
2022/05/25 09:17:40;;;;;;;4.38;3.00;;;;;;;15.01;85.79;96366.97;5089830;28;20040;-81
2022/05/25 09:20:09;;;;;;;5.20;2.95;;;;;;;15.00;85.35;96366.19;5089248;28;20075;-81
2022/05/25 09:22:36;;;;;;;3.22;2.72;;;;;;;14.85;82.29;96370.44;5089658;28;20043;-80
2022/05/25 09:25:05;;;;;;;4.82;3.15;;;;;;;14.88;83.81;96361.53;5089256;28;20055;-81
2022/05/25 09:27:39;;;;;;;4.43;2.28;;;;;;;14.91;84.82;96364.72;5089475;28;20032;-81
2022/05/25 09:30:08;;;;;;;3.47;1.10;;;;;;;14.70;78.17;96373.88;5089342;28;20051;-81
2022/05/25 09:32:41;;;;;;;2.13;1.20;;;;;;;14.64;77.58;96380.72;5089501;28;20044;-78
2022/05/25 09:35:12;;;;;;;1.40;1.00;;;;;;;14.67;78.70;96379.22;5089278;28;20040;-78
2022/05/25 09:37:46;;;;;;;2.88;1.25;;;;;;;14.69;80.90;96372.28;5089891;28;20128;-78
2022/05/25 09:40:20;;;;;;;1.35;1.10;;;;;;;14.68;79.50;96367.16;5088973;28;20047;-79
2022/05/25 09:42:51;;;;;;;1.85;1.27;;;;;;;14.65;78.84;96365.88;5088342;28;20064;-78
2022/05/25 09:45:17;;;;;;;2.70;1.17;;;;;;;14.76;80.07;96368.94;5089340;28;20048;-78
2022/05/25 09:47:48;;;;;;;4.18;1.30;;;;;;;14.82;79.76;96376.59;5089643;28;20040;-79
2022/05/25 09:50:25;;;;;;;2.50;1.23;;;;;;;14.81;80.58;96382.41;5089202;28;20044;-79
2022/05/25 09:52:53;;;;;;;2.78;1.25;;;;;;;14.92;80.54;96374.53;5089636;28;20047;-79
2022/05/25 09:55:25;;;;;;;3.65;1.40;;;;;;;14.97;79.43;96379.78;5088778;28;20044;-78
2022/05/25 09:57:57;;;;;;;2.53;1.50;;;;;;;14.96;78.73;96378.19;5089494;28;20078;-78
2022/05/25 10:00:40;;;;;;;3.60;1.50;;;;;;;14.97;78.34;96371.53;5089049;28;20462;-79
2022/05/25 10:03:11;;;;;;;2.03;1.83;;;;;;;15.09;79.14;96377.03;5092430;28;20048;-78
2022/05/25 10:05:53;;;;;;;1.40;1.13;;;;;;;15.19;74.51;96384.78;5092994;28;20410;-81
2022/05/25 10:08:27;;;;;;;4.93;1.50;;;;;;;15.20;76.02;96380.09;5092300;28;20509;-80
2022/05/25 10:10:56;;;;;;;2.67;1.40;;;;;;;15.15;76.11;96383.88;5091588;28;20097;-80
2022/05/25 10:13:27;;;;;;;2.30;1.80;;;;;;;15.21;78.73;96390.69;5092406;28;20040;-81
2022/05/25 10:15:53;;;;;;;2.35;1.70;;;;;;;15.33;77.92;96389.88;5092645;28;20059;-80
2022/05/25 10:18:36;;;;;;;2.25;1.52;;;;;;;15.46;78.30;96387.91;5092148;28;20048;-81
2022/05/25 10:21:04;;;;;;;2.30;1.45;;;;;;;15.47;72.30;96379.31;5092015;28;20059;-80
2022/05/25 10:23:31;;;;;;;2.15;1.55;;;;;;;15.56;73.57;96387.41;5092624;28;20044;-80
2022/05/25 10:26:08;;;;;;;2.28;1.50;;;;;;;15.65;74.32;96390.81;5092240;28;20071;-81
2022/05/25 10:28:37;;;;;;;3.13;1.50;;;;;;;15.55;72.46;96392.06;5092525;28;20479;-80
2022/05/25 10:36:56;;;;;;;2.20;1.58;;;;;;;15.61;73.70;96389.91;5092400;28;20047;-81
2022/05/25 10:39:31;;;;;;;2.17;1.30;;;;;;;15.67;73.95;96383.03;5091824;28;20138;-80
2022/05/25 10:42:05;;;;;;;3.80;2.10;;;;;;;15.79;75.77;96374.72;5090847;28;20040;-80
2022/05/25 10:44:41;;;;;;;7.35;2.10;;;;;;;15.88;75.12;96380.06;5092264;28;20059;-80
2022/05/25 10:47:16;;;;;;;3.00;1.50;;;;;;;16.11;76.72;96380.28;5091735;28;20040;-80
2022/05/25 10:49:44;;;;;;;3.38;1.80;;;;;;;16.46;77.07;96385.88;5092025;28;20051;-80
2022/05/25 10:52:22;;;;;;;3.20;1.50;;;;;;;16.53;70.22;96379.75;5091634;28;20056;-81
2022/05/25 10:54:52;;;;;;;2.08;1.00;;;;;;;16.61;69.64;96393.31;5092148;28;20172;-79
2022/05/25 10:57:45;;;;;;;1.35;1.10;;;;;;;16.63;68.35;96391.00;5091501;28;20047;-78
2022/05/25 11:00:16;;;;;;;2.13;0.98;;;;;;;16.63;67.59;96392.97;5091526;28;20044;-81
2022/05/25 11:03:07;;;;;;;2.35;1.20;;;;;;;16.55;66.86;96388.44;5091763;28;20074;-80
2022/05/25 11:05:45;;;;;;;2.35;1.10;;;;;;;16.34;64.35;96395.00;5091785;28;20048;-78
2022/05/25 11:08:21;;;;;;;2.60;1.40;;;;;;;16.53;69.55;96397.03;5091434;28;20048;-78
2022/05/25 11:10:54;;;;;;;2.45;1.10;;;;;;;16.55;65.83;96399.41;5090655;28;20093;-80
2022/05/25 11:13:37;;;;;;;3.22;1.25;;;;;;;16.68;67.48;96398.19;5090495;28;21376;-79
2022/05/25 11:16:21;;;;;;;3.60;1.50;;;;;;;16.88;68.00;96399.09;5091407;28;20048;-78
2022/05/25 11:19:00;;;;;;;5.13;1.13;;;;;;;17.14;69.47;96393.78;5091482;28;20132;-78
2022/05/25 11:21:38;;;;;;;3.80;1.52;;;;;;;17.51;66.32;96395.34;5091315;28;20044;-78
2022/05/25 11:24:20;;;;;;;1.92;1.13;;;;;;;17.69;69.13;96400.03;5090953;28;20040;-79
2022/05/25 11:27:00;;;;;;;2.33;1.70;;;;;;;17.83;66.64;96407.84;5091409;28;20044;-76
2022/05/25 11:29:41;;;;;;;1.95;1.40;;;;;;;17.85;64.49;96402.75;5091326;28;20040;-79
2022/05/25 11:32:20;;;;;;;1.90;1.30;;;;;;;17.76;65.58;96402.19;5090780;28;20048;-77
2022/05/25 11:35:05;;;;;;;3.30;1.70;;;;;;;17.73;67.45;96397.41;5091349;28;20048;-80
2022/05/25 11:37:48;;;;;;;3.30;1.70;;;;;;;17.91;62.19;96398.56;5091037;28;20040;-80
2022/05/25 11:40:40;;;;;;;8.40;1.77;;;;;;;17.98;62.99;96401.44;5090628;28;20062;-81
2022/05/25 11:43:33;;;;;;;3.83;1.50;;;;;;;18.00;64.67;96401.06;5089737;28;20044;-80
2022/05/25 11:46:08;;;;;;;2.22;1.35;;;;;;;18.12;62.03;96402.88;5090949;28;20048;-80
2022/05/25 11:48:53;;;;;;;4.15;1.70;;;;;;;17.96;60.34;96405.72;5090977;28;20036;-79
2022/05/25 11:51:24;;;;;;;1.92;1.30;;;;;;;17.84;58.96;96398.41;5090370;28;20498;-80
2022/05/25 11:54:05;;;;;;;1.50;1.02;;;;;;;17.85;58.60;96405.50;5090809;28;20398;-80
2022/05/25 11:56:50;;;;;;;3.13;1.27;;;;;;;17.91;60.27;96398.56;5090577;28;20043;-81
2022/05/25 11:59:44;;;;;;;2.97;1.25;;;;;;;17.82;58.81;96397.97;5090209;28;20051;-78
2022/05/25 12:02:26;;;;;;;2.70;1.10;;;;;;;17.80;56.65;96402.25;5090105;28;20068;-78
2022/05/25 12:05:09;;;;;;;2.85;1.00;;;;;;;17.81;61.31;96399.16;5090713;28;20087;-79
2022/05/25 12:08:02;;;;;;;1.65;1.00;;;;;;;18.00;62.52;96401.06;5090409;28;20047;-78
2022/05/25 12:10:34;;;;;;;3.67;1.00;;;;;;;18.00;59.22;96395.56;5090146;28;20109;-79